Brightside, New York
Current Conditions -  °F | °C
As of 10:51 PM on Monday 22 Dec 2014 (Local Time) from KSLK Reporting Station
Broken Clouds Broken Clouds  
Wind Chill: 10°   Ceiling: 3600
Heat Index: 20°   Visibility: 7mi
Dew Point: 18°   Wind: 8mph
Humidity: 92%   Direction: 40°NE
Pressure: 30.13"   Gusts: NA
Location:  43.8706°N, 74.5546°W
Report Text: KSLK 230351Z AUTO 04007KT 7SM BKN036 M07/M08 A3013 RMK AO2 SLP230 T10671078 $
Loading
Personal Weather Stations






























Interactive Weather Map New forecast layout! Learn more

10-Day Weather Forecast

Advertisements
Track Severe Weather on mobile